Aviation Digital Data Service (ADDS)

Output produced by METARs form (1219 UTC 08 February 2016)
found at http://aviationweather.gov/adds/metars/
 
KECG 081146Z 0812/0912 31012G18KT P6SM SCT030 
     FM081500 31009KT P6SM SCT250 
     FM082100 14007KT P6SM OVC100 
     FM090200 18006KT 6SM -RA BR OVC030